Latest Weather Observations for Port Lincoln Airport

IDS60801

Issued at 12:31 pm CDT Monday 20 November 2017 (issued every 30 minutes, with the page automatically refreshed every 10 minutes)

About weather observations | Map of weather stations | Latest weather observations for SA | Other Formats
Station Details ID: 018192 Name: PORT LINCOLN AWS Lat: -34.60 Lon: 135.88 Height: 8.5 m
Data from the previous 72 hours. | See also: Recent months at Port Lincoln Airport
Date/Time
CDT
Temp
°C
App
Temp
°C
Dew
Point
°C
Rel
Hum
%
Delta-T
°C
Wind Press
QNH
hPa
Press
MSL
hPa
Rain since
9am
mm
Dir  Spd
km/h
Gust
km/h
Spd
kts
Gust
kts
20/12:30pm 27.7 27.1 15.7 48 7.4 ESE 13 20 7 11 1012.2 1012.2 0.0
20/12:00pm 27.3 27.3 16.3 51 6.8 E 11 17 6 9 1012.6 1012.6 0.0
20/11:30am 25.9 25.3 15.6 53 6.3 E 13 19 7 10 1012.9 1012.9 0.0
20/11:00am 24.9 24.8 15.0 54 5.9 E 9 15 5 8 1013.1 1013.1 0.0
20/10:30am 24.9 24.5 15.2 54 5.8 E 11 13 6 7 1013.3 1013.3 0.0
20/10:00am 26.1 25.9 15.8 53 6.3 ENE 11 17 6 9 1013.3 1013.3 0.0
20/09:30am 23.2 23.7 16.5 66 4.1 SSE 9 13 5 7 1013.5 1013.5 0.0
20/09:00am 22.2 22.8 16.7 71 3.4 SSE 9 13 5 7 1013.7 1013.7 0.0
20/08:30am 20.8 23.0 16.6 77 2.5 CALM 0 0 0 0 1013.6 1013.6 0.0
20/08:00am 18.7 21.2 17.2 91 0.9 CALM 0 0 0 0 1013.4 1013.4 0.0
20/07:30am 16.7 17.4 16.1 96 0.4 W 7 7 4 4 1013.3 1013.3 0.0
20/07:00am 15.1 15.4 14.5 96 0.3 WNW 6 7 3 4 1013.4 1013.4 0.0
20/06:30am 14.2 14.0 13.6 96 0.3 W 7 7 4 4 1013.0 1013.0 0.0
20/06:00am 13.7 13.3 13.1 96 0.3 WNW 7 9 4 5 1012.7 1012.7 0.0
20/05:30am 13.6 13.1 12.8 95 0.4 WNW 7 7 4 4 1012.4 1012.4 0.0
20/05:00am 13.9 13.5 13.0 94 0.5 WNW 7 9 4 5 1012.2 1012.2 0.0
20/04:30am 15.2 15.2 14.2 94 0.6 SW 7 9 4 5 1012.2 1012.2 0.0
20/04:00am 14.6 15.2 13.1 91 0.8 W 2 7 1 4 1012.3 1012.3 0.0
20/03:30am 15.7 15.9 14.1 90 0.9 SSE 6 7 3 4 1012.3 1012.3 0.0
20/03:00am 16.5 16.7 14.3 87 1.3 S 6 7 3 4 1012.4 1012.4 0.0
20/02:30am 17.8 17.8 15.2 85 1.5 SSE 9 11 5 6 1012.5 1012.5 0.0
20/02:00am 18.3 18.2 15.0 81 1.9 S 9 11 5 6 1012.7 1012.7 0.0
20/01:30am 18.7 19.1 15.2 80 2.1 S 7 9 4 5 1012.7 1012.7 0.0
20/01:00am 18.6 19.0 15.3 81 1.9 S 7 9 4 5 1012.8 1012.8 0.0
20/12:30am 18.5 18.6 15.4 82 1.8 S 9 13 5 7 1012.7 1012.7 0.0
20/12:00am 18.7 18.8 15.6 82 1.8 S 9 11 5 6 1012.7 1012.7 0.0
 
Date/Time
CDT
Temp
°C
App
Temp
°C
Dew
Point
°C
Rel
Hum
%
Delta-T
°C
Wind Press
QNH
hPa
Press
MSL
hPa
Rain since
9am
mm
Dir  Spd
km/h
Gust
km/h
Spd
kts
Gust
kts
19/11:30pm 19.5 19.9 15.4 77 2.4 SSE 7 9 4 5 1012.9 1012.9 0.0
19/11:00pm 19.5 19.5 15.2 76 2.5 ESE 9 13 5 7 1012.8 1012.8 0.0
19/10:30pm 18.7 20.0 15.2 80 2.1 S 2 7 1 4 1012.9 1012.9 0.0
19/10:00pm 18.3 19.0 15.6 84 1.6 WNW 6 9 3 5 1012.7 1012.7 0.0
19/09:30pm 19.3 20.5 16.0 81 2.0 S 4 7 2 4 1012.5 1012.5 0.0
19/09:00pm 18.9 19.5 15.2 79 2.2 WSW 6 7 3 4 1012.3 1012.3 0.0
19/08:30pm 20.1 18.9 15.1 73 2.9 SSE 15 17 8 9 1012.0 1012.0 0.0
19/08:00pm 21.4 21.7 14.6 65 4.0 WSW 6 7 3 4 1012.0 1012.0 0.0
19/07:30pm 21.7 21.8 14.4 63 4.3 ESE 7 9 4 5 1011.8 1011.8 0.0
19/07:00pm 22.4 22.5 14.5 61 4.6 SSE 7 9 4 5 1011.8 1011.8 0.0
19/06:30pm 22.5 21.1 14.6 61 4.7 SE 15 17 8 9 1011.7 1011.7 0.0
19/06:00pm 22.5 21.8 15.4 64 4.2 SSE 13 17 7 9 1012.0 1012.0 0.0
19/05:30pm 23.2 22.4 15.0 60 4.9 SSE 13 17 7 9 1012.0 1012.0 0.0
19/05:00pm 23.3 23.1 14.6 58 5.1 S 9 13 5 7 1012.3 1012.3 0.0
19/04:30pm 24.2 23.7 14.9 56 5.6 SE 11 20 6 11 1012.3 1012.3 0.0
19/04:00pm 24.7 23.8 14.8 54 5.9 E 13 20 7 11 1012.5 1012.5 0.0
19/03:30pm 23.6 22.5 14.3 56 5.5 E 13 17 7 9 1013.1 1013.1 0.0
19/03:00pm 23.6 22.1 15.4 60 4.9 ENE 17 20 9 11 1013.3 1013.3 0.0
19/02:30pm 21.4 19.6 15.5 69 3.5 ENE 19 26 10 14 1013.4 1013.4 0.0
19/02:00pm 22.2 20.7 16.2 69 3.6 E 19 22 10 12 1013.6 1013.6 0.0
19/01:30pm 21.1 19.3 15.4 70 3.4 E 19 24 10 13 1014.1 1014.1 0.0
19/01:00pm 20.6 19.4 16.0 75 2.8 E 17 22 9 12 1014.4 1014.4 0.0
19/12:30pm 21.4 20.0 16.6 74 2.9 E 19 22 10 12 1014.8 1014.8 0.0
19/12:00pm 20.2 18.4 15.4 74 2.8 E 19 24 10 13 1015.1 1015.1 0.0
19/11:30am 19.8 18.5 15.9 78 2.3 E 17 22 9 12 1015.4 1015.4 0.0
19/11:00am 19.9 18.3 16.0 78 2.3 E 19 24 10 13 1015.2 1015.2 0.0
19/10:30am 20.1 18.8 15.9 77 2.5 E 17 24 9 13 1015.5 1015.5 0.0
19/10:00am 19.6 18.4 16.1 80 2.1 E 17 20 9 11 1015.2 1015.2 0.0
19/09:32am 20.1 19.0 16.3 79 2.3 E 17 24 9 13 1014.9 1014.9 0.0
19/09:30am 19.8 18.5 15.9 78 2.3 E 17 24 9 13 1014.9 1014.9 0.0
19/09:00am 19.5 19.0 16.0 80 2.1 E 13 17 7 9 1015.3 1015.3 0.0
19/08:30am 18.4 17.8 15.6 84 1.6 ENE 13 17 7 9 1015.0 1015.0 0.0
19/08:00am 17.9 16.5 15.5 86 1.4 ENE 17 20 9 11 1014.6 1014.6 0.0
19/07:30am 17.5 16.9 15.7 89 1.1 E 13 17 7 9 1014.8 1014.8 0.0
19/07:00am 17.2 16.6 15.7 91 0.9 E 13 17 7 9 1014.7 1014.7 0.0
19/06:30am 15.9 16.4 14.9 94 0.6 E 6 9 3 5 1014.6 1014.6 0.0
19/06:25am 15.7 15.9 14.7 94 0.6 E 7 11 4 6 1014.5 1014.5 0.0
19/06:00am 15.5 15.6 14.4 93 0.6 ESE 7 11 4 6 1014.1 1014.1 0.0
19/05:54am 15.5 14.8 14.2 92 0.7 ESE 11 15 6 8 1014.0 1014.0 0.0
19/05:30am 16.5 14.9 15.0 91 0.9 E 17 19 9 10 1013.7 1013.7 0.0
19/05:04am 16.9 17.0 15.4 91 0.9 E 9 13 5 7 1013.7 1013.7 0.0
19/05:00am 16.8 16.8 15.3 91 0.9 E 9 13 5 7 1013.6 1013.6 0.0
19/04:30am 16.7 15.9 15.2 91 0.9 ENE 13 17 7 9 1013.6 1013.6 0.0
19/04:00am 16.8 16.1 15.3 91 0.9 ENE 13 17 7 9 1013.7 1013.7 0.0
19/03:30am 16.5 14.9 15.0 91 0.9 ENE 17 24 9 13 1013.8 1013.8 0.0
19/03:00am 16.4 15.3 15.3 93 0.6 E 15 19 8 10 1014.1 1014.1 0.0
19/02:30am 15.9 16.3 14.8 93 0.6 E 6 9 3 5 1014.3 1014.3 0.0
19/02:00am 16.1 15.6 14.8 92 0.7 E 11 17 6 9 1014.2 1014.2 0.0
19/01:30am 16.5 16.8 15.0 91 0.9 ENE 7 13 4 7 1014.4 1014.4 0.0
19/01:13am 16.3 15.4 14.8 91 0.9 ENE 13 17 7 9 1014.4 1014.4 0.0
19/01:00am 16.1 15.1 14.6 91 0.9 ENE 13 19 7 10 1014.6 1014.6 0.0
19/12:30am 16.1 13.5 14.8 92 0.7 E 22 28 12 15 1014.3 1014.3 0.0
19/12:00am 16.5 13.9 15.0 91 0.9 E 22 28 12 15 1014.4 1014.4 0.0
 
Date/Time
CDT
Temp
°C
App
Temp
°C
Dew
Point
°C
Rel
Hum
%
Delta-T
°C
Wind Press
QNH
hPa
Press
MSL
hPa
Rain since
9am
mm
Dir  Spd
km/h
Gust
km/h
Spd
kts
Gust
kts
18/11:30pm 16.1 15.5 15.6 97 0.3 E 13 19 7 10 1014.5 1014.5 0.0
18/11:00pm 14.3 14.6 13.3 94 0.6 SE 4 7 2 4 1014.6 1014.6 0.0
18/10:30pm 15.5 15.8 14.5 94 0.6 SSE 6 7 3 4 1014.9 1014.9 0.0
18/10:00pm 15.2 16.5 14.1 93 0.6 CALM 0 0 0 0 1014.8 1014.8 0.0
18/09:30pm 15.5 15.5 14.2 92 0.7 SE 7 9 4 5 1014.6 1014.6 0.0
18/09:00pm 15.6 14.1 14.1 91 0.8 ESE 15 19 8 10 1014.6 1014.6 0.0
18/08:30pm 16.0 14.7 13.8 87 1.2 SE 13 15 7 8 1014.8 1014.8 0.0
18/08:00pm 17.0 16.0 13.5 80 2.0 SSE 11 13 6 7 1014.7 1014.7 0.0
18/07:30pm 18.3 16.9 13.4 73 2.8 SE 13 17 7 9 1014.4 1014.4 0.0
18/07:00pm 18.8 16.7 13.6 72 3.0 ESE 17 20 9 11 1014.2 1014.2 0.0
18/06:30pm 19.3 17.2 13.5 69 3.3 E 17 20 9 11 1014.0 1014.0 0.0
18/06:00pm 19.6 17.9 13.5 68 3.5 ESE 15 20 8 11 1014.5 1014.5 0.0
18/05:30pm 19.7 17.7 13.9 69 3.3 E 17 24 9 13 1014.6 1014.6 0.0
18/05:00pm 19.4 17.0 13.8 70 3.2 E 19 24 10 13 1014.7 1014.7 0.0
18/04:30pm 19.5 16.9 13.7 69 3.3 E 20 28 11 15 1014.7 1014.7 0.0
18/04:00pm 20.1 17.6 14.2 69 3.4 E 20 28 11 15 1015.0 1015.0 0.0
18/03:30pm 20.2 17.1 13.4 65 3.9 E 22 28 12 15 1015.3 1015.3 0.0
18/03:00pm 20.0 17.3 13.5 66 3.7 E 20 30 11 16 1015.7 1015.7 0.0
18/02:30pm 19.9 17.1 13.1 65 3.9 E 20 28 11 15 1015.8 1015.8 0.0
18/02:00pm 19.5 16.3 13.0 66 3.7 E 22 28 12 15 1015.8 1015.8 0.0
18/01:30pm 20.1 17.3 13.3 65 3.9 E 20 28 11 15 1016.1 1016.1 0.0
18/01:00pm 19.6 16.4 13.1 66 3.7 E 22 28 12 15 1016.2 1016.2 0.0
18/12:30pm 20.0 17.0 13.7 67 3.6 E 22 30 12 16 1016.0 1016.0 0.0
18/12:00pm 19.9 17.2 13.6 67 3.6 E 20 28 11 15 1016.1 1016.1 0.0
18/11:30am 19.8 17.0 13.3 66 3.7 E 20 32 11 17 1016.1 1016.1 0.0
18/11:00am 18.8 15.8 12.1 65 3.7 ENE 19 26 10 14 1016.3 1016.3 0.0
18/10:30am 19.6 16.8 13.1 66 3.7 E 20 28 11 15 1016.0 1016.0 0.0
18/10:00am 18.3 16.5 13.2 72 2.9 ENE 15 24 8 13 1016.3 1016.3 0.0
18/09:30am 18.2 15.9 12.9 71 3.0 ENE 17 24 9 13 1016.5 1016.5 0.0
18/09:00am 17.7 15.3 12.8 73 2.7 NE 17 22 9 12 1016.2 1016.2 0.0
18/08:30am 17.1 15.4 12.4 74 2.6 ENE 13 24 7 13 1015.8 1015.8 0.0
18/08:00am 16.4 15.4 12.4 77 2.2 NNE 9 17 5 9 1016.0 1016.0 0.0
18/07:30am 16.0 14.6 12.2 78 2.1 ENE 11 15 6 8 1015.9 1015.9 0.0
18/07:18am 16.0 15.0 12.4 79 2.0 ENE 9 17 5 9 1015.7 1015.7 0.0
18/07:00am 15.8 14.9 12.5 81 1.8 NE 9 13 5 7 1015.4 1015.4 0.0
18/06:30am 15.6 14.8 12.9 84 1.5 E 9 17 5 9 1015.0 1015.0 0.0
18/06:00am 15.2 15.0 12.9 86 1.3 ESE 6 7 3 4 1014.7 1014.7 0.0
18/05:30am 15.2 15.0 12.9 86 1.3 SE 6 7 3 4 1014.9 1014.9 0.0
18/05:00am 15.1 14.6 12.8 86 1.3 ESE 7 11 4 6 1014.9 1014.9 0.0
18/04:30am 15.1 13.6 13.0 87 1.2 SE 13 20 7 11 1014.7 1014.7 0.0
18/04:00am 15.2 13.7 13.1 87 1.2 E 13 17 7 9 1014.9 1014.9 0.0
18/03:30am 15.2 14.1 13.1 87 1.2 ESE 11 17 6 9 1014.8 1014.8 0.0
18/03:00am 15.1 14.3 13.0 87 1.2 E 9 15 5 8 1014.8 1014.8 0.0
18/02:30am 15.0 14.8 12.9 87 1.2 ENE 6 11 3 6 1015.4 1015.4 0.0
18/02:00am 14.9 14.1 12.8 87 1.2 SE 9 15 5 8 1015.6 1015.6 0.0
18/01:30am 15.0 13.8 12.9 87 1.2 ESE 11 15 6 8 1015.8 1015.8 0.0
18/01:00am 15.1 13.1 12.8 86 1.3 SE 15 20 8 11 1016.0 1016.0 0.0
18/12:30am 15.1 13.1 12.8 86 1.3 ESE 15 19 8 10 1016.2 1016.2 0.0
18/12:00am 15.1 13.1 12.6 85 1.4 SE 15 20 8 11 1016.6 1016.6 0.0
 
Date/Time
CDT
Temp
°C
App
Temp
°C
Dew
Point
°C
Rel
Hum
%
Delta-T
°C
Wind Press
QNH
hPa
Press
MSL
hPa
Rain since
9am
mm
Dir  Spd
km/h
Gust
km/h
Spd
kts
Gust
kts
17/11:30pm 15.3 13.3 12.8 85 1.4 SSE 15 22 8 12 1017.1 1017.1 0.0
17/11:00pm 15.4 13.8 12.7 84 1.5 SE 13 19 7 10 1017.2 1017.2 0.0
17/10:30pm 15.2 12.5 12.9 86 1.3 SSE 19 22 10 12 1017.0 1017.0 0.0
17/10:00pm 15.2 12.8 12.5 84 1.5 SSE 17 24 9 13 1016.7 1016.7 0.0
17/09:30pm 15.4 13.3 12.5 83 1.6 SSE 15 20 8 11 1016.7 1016.7 0.0
17/09:00pm 15.3 12.8 12.2 82 1.7 S 17 24 9 13 1016.5 1016.5 0.0
17/08:30pm 15.3 12.7 12.1 81 1.7 SSE 17 26 9 14 1016.2 1016.2 0.0
17/08:00pm 15.4 12.5 12.2 81 1.7 S 19 26 10 14 1016.2 1016.2 0.0
17/07:30pm 15.5 12.5 11.9 79 1.9 S 19 26 10 14 1015.8 1015.8 0.0
17/07:23pm 15.5 12.3 11.9 79 2.0 S 20 26 11 14 1015.8 1015.8 0.0
17/07:00pm 15.6 11.9 11.6 77 2.2 S 22 28 12 15 1015.8 1015.8 0.0
17/06:30pm 15.9 11.4 11.5 75 2.4 S 26 32 14 17 1015.6 1015.6 0.0
17/06:00pm 16.3 11.8 11.5 73 2.6 S 26 33 14 18 1015.8 1015.8 0.0
17/05:30pm 17.2 12.0 11.5 69 3.1 S 30 33 16 18 1015.8 1015.8 0.0
17/05:00pm 17.0 11.7 11.1 68 3.2 S 30 35 16 19 1015.8 1015.8 0.0
17/04:30pm 17.3 11.6 11.3 68 3.2 S 32 39 17 21 1016.0 1016.0 0.0
17/04:00pm 17.4 11.7 11.2 67 3.4 S 32 37 17 20 1016.1 1016.1 0.0
17/03:30pm 17.6 11.8 10.9 65 3.6 S 32 39 17 21 1016.3 1016.3 0.0
17/03:00pm 17.9 13.4 10.0 60 4.2 SSW 24 35 13 19 1016.6 1016.6 0.0
17/02:30pm 18.7 14.0 10.8 60 4.3 SSW 26 35 14 19 1016.9 1016.9 0.0
17/02:00pm 17.9 12.9 10.8 63 3.8 S 28 33 15 18 1017.1 1017.1 0.0
17/01:30pm 18.5 13.5 10.8 61 4.2 SSE 28 33 15 18 1017.0 1017.0 0.0
17/01:00pm 17.9 14.0 9.3 57 4.5 SSE 20 30 11 16 1017.2 1017.2 0.0

Other Formats:

Comma delimited format used in spreadsheet applications
http://www.bom.gov.au/fwo/IDS60801/IDS60801.95661.axf

JavaScript Object Notation format (JSON) in row-major order
http://www.bom.gov.au/fwo/IDS60801/IDS60801.95661.json